createdAt,value
2022-11-28T00:01:37.631Z,7.63
2022-11-28T00:04:05.489Z,7.10
2022-11-28T00:06:32.119Z,7.47
2022-11-28T00:09:00.107Z,7.17
2022-11-28T00:11:27.327Z,7.07
2022-11-28T00:13:54.776Z,7.47
2022-11-28T00:16:22.774Z,7.73
2022-11-28T00:18:54.377Z,7.70
2022-11-28T00:21:21.885Z,7.90
2022-11-28T00:23:49.330Z,6.80
2022-11-28T00:26:20.487Z,7.67
2022-11-28T00:28:47.513Z,7.00
2022-11-28T00:31:20.279Z,7.30
2022-11-28T00:33:47.436Z,7.07
2022-11-28T00:36:14.442Z,7.07
2022-11-28T00:38:41.732Z,6.80
2022-11-28T00:41:17.283Z,6.73
2022-11-28T00:43:48.010Z,7.53
2022-11-28T00:46:15.897Z,7.03
2022-11-28T00:48:42.561Z,6.77
2022-11-28T00:51:14.869Z,7.17
2022-11-28T00:53:43.277Z,6.77
2022-11-28T00:56:12.086Z,6.93
2022-11-28T00:58:40.005Z,6.40
2022-11-28T01:01:18.418Z,6.60
2022-11-28T01:03:46.653Z,7.00
2022-11-28T01:06:13.682Z,6.40
2022-11-28T01:08:40.311Z,6.63
2022-11-28T01:11:16.020Z,6.80
2022-11-28T01:13:42.638Z,6.97
2022-11-28T01:16:09.792Z,6.13
2022-11-28T01:18:36.950Z,6.57
2022-11-28T01:21:04.481Z,6.87
2022-11-28T01:23:31.093Z,9.40
2022-11-28T01:25:57.738Z,7.60
2022-11-28T01:28:24.309Z,6.70
2022-11-28T01:30:50.920Z,7.13
2022-11-28T01:33:17.496Z,6.70
2022-11-28T01:35:54.435Z,7.03
2022-11-28T01:38:21.041Z,6.67
2022-11-28T01:40:47.645Z,6.53
2022-11-28T01:43:14.311Z,6.80
2022-11-28T01:45:40.963Z,6.27
2022-11-28T01:48:09.914Z,6.20
2022-11-28T01:50:37.447Z,6.23
2022-11-28T01:53:08.129Z,5.90
2022-11-28T01:55:41.107Z,6.70
2022-11-28T01:58:07.756Z,6.17
2022-11-28T02:00:34.740Z,6.17
2022-11-28T02:03:09.115Z,6.07
2022-11-28T02:05:36.262Z,5.90
2022-11-28T02:08:03.437Z,5.93
2022-11-28T02:10:57.481Z,5.57
2022-11-28T02:13:35.859Z,5.87
2022-11-28T02:16:27.175Z,5.90
2022-11-28T02:19:21.256Z,6.50
2022-11-28T02:22:08.627Z,5.63
2022-11-28T02:25:11.271Z,5.50
2022-11-28T02:27:46.814Z,5.47
2022-11-28T02:30:38.564Z,5.87
2022-11-28T02:33:19.487Z,5.13
2022-11-28T02:35:55.646Z,5.90
2022-11-28T02:38:52.522Z,5.67
2022-11-28T02:41:39.233Z,6.07
2022-11-28T02:44:18.823Z,5.87
2022-11-28T02:46:51.405Z,6.20
2022-11-28T02:49:45.817Z,5.47
2022-11-28T02:52:28.752Z,5.67
2022-11-28T02:54:56.438Z,5.77
2022-11-28T02:57:23.119Z,6.20
2022-11-28T02:59:51.789Z,6.20
2022-11-28T03:02:28.917Z,6.30
2022-11-28T03:05:11.567Z,5.70
2022-11-28T03:08:05.757Z,6.20
2022-11-28T03:11:16.429Z,5.73
2022-11-28T03:14:06.722Z,5.73
2022-11-28T03:16:42.789Z,5.73
2022-11-28T03:19:25.802Z,5.40
2022-11-28T03:22:25.084Z,5.90
2022-11-28T03:25:10.630Z,6.00
2022-11-28T03:27:49.184Z,5.73
2022-11-28T03:30:29.278Z,5.90
2022-11-28T03:32:58.345Z,5.77
2022-11-28T03:35:29.210Z,6.20
2022-11-28T03:38:04.734Z,5.60
2022-11-28T03:40:36.658Z,5.50
2022-11-28T03:43:09.207Z,5.77
2022-11-28T03:45:44.192Z,5.97
2022-11-28T03:48:18.550Z,6.07
2022-11-28T03:50:53.210Z,5.80
2022-11-28T03:53:27.476Z,6.20
2022-11-28T03:56:03.826Z,5.97
2022-11-28T03:58:38.062Z,5.80
2022-11-28T04:01:33.819Z,5.93
2022-11-28T04:04:11.531Z,5.70
2022-11-28T04:06:55.987Z,5.77
2022-11-28T04:09:47.166Z,6.57
2022-11-28T04:12:35.267Z,6.30
2022-11-28T04:15:15.955Z,6.10
2022-11-28T04:17:54.571Z,6.67
2022-11-28T04:20:32.981Z,6.20
2022-11-28T04:23:09.084Z,6.10
2022-11-28T04:25:39.630Z,6.20
2022-11-28T04:28:12.348Z,6.60
2022-11-28T04:30:41.203Z,5.83
2022-11-28T04:33:11.066Z,6.90
2022-11-28T04:35:45.359Z,5.97
2022-11-28T04:38:13.166Z,6.10
2022-11-28T04:40:50.781Z,6.47
2022-11-28T04:43:31.454Z,6.57
2022-11-28T04:46:24.873Z,5.97
2022-11-28T04:48:51.566Z,6.03
2022-11-28T04:51:28.357Z,6.40
2022-11-28T04:54:32.511Z,6.23
2022-11-28T04:57:24.670Z,5.97
2022-11-28T04:59:52.202Z,6.50
2022-11-28T05:02:21.403Z,6.20
2022-11-28T05:04:48.150Z,7.93
2022-11-28T05:07:14.776Z,7.53
2022-11-28T05:09:41.831Z,6.87
2022-11-28T05:12:08.426Z,6.30
2022-11-28T05:14:35.214Z,5.90
2022-11-28T05:17:01.788Z,6.00
2022-11-28T05:19:28.382Z,7.00
2022-11-28T05:21:55.018Z,6.87
2022-11-28T05:24:22.604Z,6.23
2022-11-28T05:26:49.432Z,6.23
2022-11-28T05:29:16.388Z,6.47
2022-11-28T05:31:43.336Z,7.10
2022-11-28T05:34:10.032Z,7.53
2022-11-28T05:36:36.653Z,6.63
2022-11-28T05:39:03.342Z,6.50
2022-11-28T05:41:32.251Z,7.00
2022-11-28T05:43:59.668Z,6.87
2022-11-28T05:46:26.796Z,7.10
2022-11-28T05:48:53.723Z,7.57
2022-11-28T05:51:20.551Z,7.50
2022-11-28T05:53:47.223Z,6.37
2022-11-28T05:56:16.353Z,7.53
2022-11-28T05:58:43.892Z,7.30
2022-11-28T06:01:16.536Z,7.00
2022-11-28T06:03:44.114Z,7.13
2022-11-28T06:06:19.244Z,7.93
2022-11-28T06:08:46.959Z,7.33
2022-11-28T06:11:14.906Z,7.13
2022-11-28T06:13:43.104Z,7.13
2022-11-28T06:16:11.513Z,7.40
2022-11-28T06:18:39.310Z,6.90
2022-11-28T06:21:07.789Z,6.63
2022-11-28T06:23:34.742Z,7.10
2022-11-28T06:26:09.726Z,6.67
2022-11-28T06:28:36.919Z,7.07
2022-11-28T06:31:04.820Z,7.20
2022-11-28T06:33:31.582Z,7.00
2022-11-28T06:36:02.374Z,6.90
2022-11-28T06:38:29.407Z,7.43
2022-11-28T06:41:00.848Z,7.37
2022-11-28T06:43:27.703Z,6.80
2022-11-28T06:45:54.373Z,6.70
2022-11-28T06:48:21.350Z,7.27
2022-11-28T06:50:48.250Z,7.30
2022-11-28T06:53:14.851Z,7.40
2022-11-28T06:55:42.389Z,6.70
2022-11-28T06:58:09.260Z,7.00
2022-11-28T07:00:36.173Z,7.50
2022-11-28T07:03:03.099Z,7.07
2022-11-28T07:05:30.977Z,7.17
2022-11-28T07:07:58.627Z,7.57
2022-11-28T07:10:26.004Z,7.03
2022-11-28T07:12:59.366Z,7.80
2022-11-28T07:15:29.114Z,8.27
2022-11-28T07:17:55.735Z,7.20
2022-11-28T07:20:22.317Z,7.80
2022-11-28T07:22:49.275Z,8.10
2022-11-28T07:25:18.197Z,8.40
2022-11-28T07:27:44.866Z,8.93
2022-11-28T07:30:11.825Z,7.87
2022-11-28T07:32:41.565Z,8.53
2022-11-28T07:35:08.944Z,8.50
2022-11-28T07:37:36.338Z,8.40
2022-11-28T07:40:03.910Z,9.03
2022-11-28T07:42:30.589Z,8.70
2022-11-28T07:45:04.716Z,8.63
2022-11-28T07:47:31.682Z,8.77
2022-11-28T07:49:58.258Z,9.13
2022-11-28T07:52:24.886Z,8.83
2022-11-28T07:54:51.480Z,8.33
2022-11-28T07:57:18.120Z,9.37
2022-11-28T07:59:45.134Z,8.93
2022-11-28T08:02:12.329Z,8.90
2022-11-28T08:04:43.733Z,8.97
2022-11-28T08:07:14.430Z,8.93
2022-11-28T08:09:41.300Z,9.40
2022-11-28T08:12:08.192Z,9.43
2022-11-28T08:14:34.991Z,9.80
2022-11-28T08:17:01.687Z,9.63
2022-11-28T08:19:32.116Z,9.23
2022-11-28T08:22:01.896Z,10.13
2022-11-28T08:24:28.499Z,10.53
2022-11-28T08:26:55.093Z,10.90
2022-11-28T08:29:21.718Z,10.00
2022-11-28T08:31:48.437Z,9.60
2022-11-28T08:34:15.143Z,9.37
2022-11-28T08:36:43.256Z,9.33
2022-11-28T08:39:27.230Z,9.57
2022-11-28T08:41:57.192Z,9.33
2022-11-28T08:44:24.240Z,10.50
2022-11-28T08:46:50.950Z,9.70
2022-11-28T08:49:17.706Z,10.00
2022-11-28T08:51:44.545Z,9.10
2022-11-28T08:54:11.224Z,10.03
2022-11-28T08:56:37.856Z,9.33
2022-11-28T08:59:07.702Z,9.90
2022-11-28T09:01:34.507Z,9.67
2022-11-28T09:04:01.275Z,9.30
2022-11-28T09:06:27.952Z,10.13
2022-11-28T09:08:54.707Z,9.37
2022-11-28T09:11:22.682Z,10.17
2022-11-28T09:13:49.995Z,10.03
2022-11-28T09:16:16.887Z,10.57
2022-11-28T09:18:43.733Z,10.20
2022-11-28T09:21:14.756Z,9.13
2022-11-28T09:23:43.308Z,10.50
2022-11-28T09:26:10.053Z,9.37
2022-11-28T09:28:36.887Z,9.77
2022-11-28T09:31:05.448Z,10.30
2022-11-28T09:33:32.951Z,10.57
2022-11-28T09:36:03.671Z,10.67
2022-11-28T09:38:30.261Z,10.20
2022-11-28T09:40:56.871Z,9.67
2022-11-28T09:43:32.729Z,10.90
2022-11-28T09:46:02.287Z,9.57
2022-11-28T09:48:34.977Z,10.10
2022-11-28T09:51:16.768Z,9.80
2022-11-28T09:53:55.844Z,9.50
2022-11-28T09:56:22.804Z,10.10
2022-11-28T09:58:55.376Z,9.80
2022-11-28T10:01:28.476Z,9.20
2022-11-28T10:04:11.447Z,9.97
2022-11-28T10:07:06.218Z,10.37
2022-11-28T10:09:57.165Z,11.70
2022-11-28T10:13:01.307Z,9.57
2022-11-28T10:15:44.713Z,9.77
2022-11-28T10:18:49.708Z,10.03
2022-11-28T10:21:22.914Z,10.13
2022-11-28T10:23:52.243Z,9.87
2022-11-28T10:26:37.398Z,10.50
2022-11-28T10:29:32.340Z,9.57
2022-11-28T10:32:04.661Z,9.57
2022-11-28T10:34:55.100Z,9.87
2022-11-28T10:37:26.699Z,10.07
2022-11-28T10:39:54.947Z,8.77
2022-11-28T10:42:26.976Z,9.00
2022-11-28T10:45:14.889Z,8.60
2022-11-28T10:48:38.113Z,8.97
2022-11-28T10:51:19.375Z,8.87
2022-11-28T10:54:34.443Z,9.27
2022-11-28T10:57:10.410Z,8.97
2022-11-28T10:59:55.784Z,9.73
2022-11-28T11:02:54.712Z,9.33
2022-11-28T11:05:30.757Z,8.87
2022-11-28T11:08:02.329Z,9.77
2022-11-28T11:10:35.935Z,8.90
2022-11-28T11:13:20.225Z,8.90
2022-11-28T11:15:51.491Z,8.73
2022-11-28T11:18:24.947Z,9.33
2022-11-28T11:20:53.192Z,8.63
2022-11-28T11:23:22.476Z,8.50
2022-11-28T11:25:58.283Z,8.90
2022-11-28T11:28:45.738Z,8.73
2022-11-28T11:31:34.428Z,8.23
2022-11-28T11:34:07.091Z,9.17
2022-11-28T11:36:36.510Z,8.87
2022-11-28T11:39:16.835Z,8.53
2022-11-28T11:41:49.246Z,9.53
2022-11-28T11:44:15.800Z,9.80
2022-11-28T11:46:52.541Z,9.10
2022-11-28T11:49:32.718Z,9.47
2022-11-28T11:52:02.944Z,9.13
2022-11-28T11:54:29.768Z,8.17
2022-11-28T11:57:25.103Z,8.70
2022-11-28T11:59:50.622Z,9.03
2022-11-28T12:02:29.884Z,9.30
2022-11-28T12:05:03.118Z,9.03
2022-11-28T12:07:58.327Z,9.30
2022-11-28T12:10:27.779Z,8.93
2022-11-28T12:12:54.481Z,8.47
2022-11-28T12:15:42.909Z,9.00
2022-11-28T12:18:40.514Z,9.07
2022-11-28T12:21:19.706Z,9.57
2022-11-28T12:24:04.353Z,8.43
2022-11-28T12:26:40.809Z,9.43
2022-11-28T12:29:31.697Z,9.37
2022-11-28T12:32:08.896Z,9.13
2022-11-28T12:34:51.391Z,9.53
2022-11-28T12:37:41.998Z,8.43
2022-11-28T12:40:42.571Z,9.10
2022-11-28T12:43:30.930Z,10.00
2022-11-28T12:46:19.819Z,8.90
2022-11-28T12:49:10.718Z,10.27
2022-11-28T12:52:02.171Z,9.53
2022-11-28T12:54:37.597Z,8.53
2022-11-28T12:57:24.561Z,10.07
2022-11-28T12:59:54.203Z,9.00
2022-11-28T13:02:38.996Z,8.87
2022-11-28T13:05:19.946Z,8.93
2022-11-28T13:08:11.869Z,8.73
2022-11-28T13:10:56.089Z,8.90
2022-11-28T13:13:41.598Z,9.13
2022-11-28T13:16:37.859Z,9.20
2022-11-28T13:19:35.558Z,9.20
2022-11-28T13:22:23.404Z,9.20
2022-11-28T13:25:14.302Z,9.00
2022-11-28T13:28:22.147Z,12.37
2022-11-28T13:30:59.513Z,8.67
2022-11-28T13:33:50.711Z,8.20
2022-11-28T13:39:48.007Z,9.03
2022-11-28T13:45:32.574Z,8.93
2022-11-28T13:48:00.681Z,9.10
2022-11-28T13:50:36.534Z,8.43
2022-11-28T13:53:21.595Z,8.70
2022-11-28T13:55:53.747Z,9.03
2022-11-28T13:58:28.550Z,8.20
2022-11-28T14:01:10.393Z,9.20
2022-11-28T14:03:53.564Z,8.70
2022-11-28T14:06:23.681Z,8.43
2022-11-28T14:09:05.690Z,9.20
2022-11-28T14:11:53.679Z,9.53
2022-11-28T14:14:42.867Z,8.87
2022-11-28T14:17:31.001Z,8.90
2022-11-28T14:20:28.811Z,10.03
2022-11-28T14:23:41.436Z,8.70
2022-11-28T14:26:24.878Z,9.23
2022-11-28T14:28:52.152Z,9.10
2022-11-28T14:31:25.863Z,9.03
2022-11-28T14:33:59.710Z,9.87
2022-11-28T14:36:33.583Z,10.30
2022-11-28T14:39:11.937Z,10.87
2022-11-28T14:42:03.777Z,10.03
2022-11-28T14:44:51.536Z,9.30
2022-11-28T14:47:24.050Z,9.23
2022-11-28T14:50:12.015Z,9.70
2022-11-28T14:52:40.309Z,9.30
2022-11-28T14:55:11.370Z,9.77
2022-11-28T14:57:57.501Z,9.57
2022-11-28T15:00:27.814Z,9.40
2022-11-28T15:03:04.196Z,9.93
2022-11-28T15:05:45.173Z,9.97
2022-11-28T15:08:32.830Z,10.17
2022-11-28T15:11:12.747Z,9.90
2022-11-28T15:13:51.879Z,10.63
2022-11-28T15:16:21.301Z,10.03
2022-11-28T15:18:52.765Z,9.93
2022-11-28T15:21:20.267Z,10.43
2022-11-28T15:23:48.215Z,9.73
2022-11-28T15:26:30.382Z,10.20
2022-11-28T15:29:16.877Z,10.37
2022-11-28T15:31:44.190Z,10.33
2022-11-28T15:34:11.261Z,10.30
2022-11-28T15:36:39.319Z,10.40
2022-11-28T15:39:24.492Z,9.97
2022-11-28T15:41:51.129Z,11.17
2022-11-28T15:44:18.061Z,14.10
2022-11-28T15:46:45.127Z,12.90
2022-11-28T15:49:25.884Z,12.13
2022-11-28T15:51:55.770Z,10.73
2022-11-28T15:54:36.070Z,11.77
2022-11-28T15:57:05.243Z,12.10
2022-11-28T15:59:33.299Z,11.50
2022-11-28T16:02:11.254Z,11.77
2022-11-28T16:04:38.214Z,11.23
2022-11-28T16:07:05.758Z,11.77
2022-11-28T16:09:35.345Z,11.07
2022-11-28T16:12:03.885Z,11.33
2022-11-28T16:14:34.565Z,11.53
2022-11-28T16:17:05.057Z,11.57
2022-11-28T16:19:35.431Z,11.77
2022-11-28T16:22:09.005Z,14.43
2022-11-28T16:24:55.253Z,12.57
2022-11-28T16:27:39.892Z,12.13
2022-11-28T16:30:25.886Z,13.33
2022-11-28T16:32:55.247Z,11.70
2022-11-28T16:35:41.393Z,12.47
2022-11-28T16:38:24.403Z,12.63
2022-11-28T16:40:58.812Z,12.93
2022-11-28T16:43:36.292Z,12.80
2022-11-28T16:46:06.593Z,13.03
2022-11-28T16:48:45.970Z,12.30
2022-11-28T16:51:15.284Z,12.90
2022-11-28T16:53:49.083Z,13.83
2022-11-28T16:56:30.910Z,12.20
2022-11-28T16:59:19.318Z,12.57
2022-11-28T17:01:48.328Z,12.93
2022-11-28T17:04:24.143Z,13.33
2022-11-28T17:06:52.275Z,13.03
2022-11-28T17:09:19.721Z,13.87
2022-11-28T17:12:24.975Z,17.47
2022-11-28T17:14:51.900Z,14.10
2022-11-28T17:17:20.028Z,14.03
2022-11-28T17:19:47.092Z,14.03
2022-11-28T17:22:20.665Z,14.10
2022-11-28T17:24:49.079Z,13.23
2022-11-28T17:27:16.213Z,12.53
2022-11-28T17:29:43.226Z,13.20
2022-11-28T17:32:13.325Z,13.30
2022-11-28T17:34:41.970Z,13.20
2022-11-28T17:37:09.066Z,14.40
2022-11-28T17:39:35.756Z,14.13
2022-11-28T17:42:02.383Z,13.20
2022-11-28T17:44:34.652Z,13.07
2022-11-28T17:47:02.665Z,13.63
2022-11-28T17:49:30.833Z,13.70
2022-11-28T17:51:58.478Z,13.13
2022-11-28T17:54:26.652Z,14.07
2022-11-28T17:56:54.184Z,14.20
2022-11-28T17:59:22.757Z,13.77
2022-11-28T18:01:50.122Z,14.07
2022-11-28T18:04:23.199Z,13.37
2022-11-28T18:06:50.022Z,13.70
2022-11-28T18:09:16.839Z,14.83
2022-11-28T18:11:46.321Z,14.50
2022-11-28T18:14:13.827Z,14.70
2022-11-28T18:16:43.594Z,16.97
2022-11-28T18:19:10.379Z,13.90
2022-11-28T18:21:37.255Z,14.70
2022-11-28T18:24:04.566Z,13.93
2022-11-28T18:26:31.772Z,14.37
2022-11-28T18:28:58.658Z,13.87
2022-11-28T18:31:28.839Z,13.40
2022-11-28T18:34:01.399Z,18.27
2022-11-28T18:36:29.946Z,14.97
2022-11-28T18:38:59.284Z,14.80
2022-11-28T18:41:26.463Z,13.63
2022-11-28T18:44:01.347Z,14.23
2022-11-28T18:46:29.297Z,14.07
2022-11-28T18:48:57.037Z,14.13
2022-11-28T18:51:27.231Z,13.83
2022-11-28T18:53:55.648Z,13.87
2022-11-28T18:56:23.476Z,14.03
2022-11-28T18:58:52.313Z,13.77
2022-11-28T19:01:28.318Z,14.23
2022-11-28T19:03:57.485Z,15.07
2022-11-28T19:06:24.236Z,15.13
2022-11-28T19:08:57.028Z,14.20
2022-11-28T19:11:24.412Z,14.70
2022-11-28T19:13:53.312Z,14.33
2022-11-28T19:16:25.724Z,13.60
2022-11-28T19:18:52.760Z,15.50
2022-11-28T19:21:22.604Z,13.57
2022-11-28T19:23:51.428Z,14.40
2022-11-28T19:26:21.433Z,13.80
2022-11-28T19:28:50.448Z,13.27
2022-11-28T19:31:22.357Z,14.93
2022-11-28T19:34:07.294Z,13.87
2022-11-28T19:36:37.635Z,13.77
2022-11-28T19:39:04.959Z,14.90
2022-11-28T19:41:32.716Z,16.00
2022-11-28T19:44:02.608Z,14.37
2022-11-28T19:46:35.199Z,13.50
2022-11-28T19:49:05.446Z,14.70
2022-11-28T19:51:33.398Z,14.30
2022-11-28T19:54:03.693Z,14.03
2022-11-28T19:56:33.251Z,14.47
2022-11-28T19:58:59.927Z,14.93
2022-11-28T20:01:28.100Z,13.70
2022-11-28T20:03:55.518Z,15.37
2022-11-28T20:06:27.375Z,15.03
2022-11-28T20:08:56.383Z,14.90
2022-11-28T20:11:26.491Z,14.50
2022-11-28T20:14:21.078Z,14.40
2022-11-28T20:16:48.000Z,30.00
2022-11-28T20:19:16.079Z,14.40
2022-11-28T20:21:44.827Z,15.63
2022-11-28T20:24:11.900Z,14.27
2022-11-28T20:26:41.721Z,14.47
2022-11-28T20:29:11.736Z,14.50
2022-11-28T20:31:45.830Z,18.00
2022-11-28T20:34:17.175Z,16.93
2022-11-28T20:36:44.786Z,18.03
2022-11-28T20:39:13.162Z,14.40
2022-11-28T20:41:39.803Z,15.17
2022-11-28T20:44:06.400Z,14.53
2022-11-28T20:46:35.332Z,14.17
2022-11-28T20:49:04.494Z,15.90
2022-11-28T20:51:32.576Z,15.13
2022-11-28T20:53:59.960Z,13.93
2022-11-28T20:56:29.739Z,14.57
2022-11-28T20:59:00.459Z,17.00
2022-11-28T21:01:34.688Z,14.27
2022-11-28T21:04:03.578Z,13.93
2022-11-28T21:06:30.505Z,14.30
2022-11-28T21:08:57.511Z,14.77
2022-11-28T21:11:55.282Z,14.17
2022-11-28T21:14:14.091Z,14.53
2022-11-28T21:16:41.291Z,14.87
2022-11-28T21:19:09.334Z,14.90
2022-11-28T21:21:38.176Z,14.67
2022-11-28T21:24:12.296Z,17.77
2022-11-28T21:26:43.248Z,15.67
2022-11-28T21:29:13.366Z,14.80
2022-11-28T21:31:43.482Z,17.07
2022-11-28T21:34:15.381Z,17.17
2022-11-28T21:36:42.612Z,14.93
2022-11-28T21:39:14.646Z,15.07
2022-11-28T21:41:41.887Z,14.60
2022-11-28T21:44:08.737Z,14.00
2022-11-28T21:46:35.385Z,15.13
2022-11-28T21:49:02.061Z,15.37
2022-11-28T21:51:28.874Z,15.67
2022-11-28T21:53:57.463Z,15.13
2022-11-28T21:56:25.138Z,14.70
2022-11-28T21:58:53.119Z,15.17
2022-11-28T22:01:21.082Z,15.13
2022-11-28T22:03:49.271Z,15.57
2022-11-28T22:06:22.695Z,14.80
2022-11-28T22:08:49.924Z,15.27
2022-11-28T22:11:17.335Z,14.40
2022-11-28T22:13:47.982Z,16.40
2022-11-28T22:16:22.016Z,13.90
2022-11-28T22:18:50.478Z,14.87
2022-11-28T22:24:06.516Z,14.47
2022-11-28T22:26:34.043Z,15.20
2022-11-28T22:29:03.925Z,14.70
2022-11-28T22:31:31.845Z,15.77
2022-11-28T22:33:58.812Z,16.03
2022-11-28T22:36:25.608Z,14.77
2022-11-28T22:38:57.764Z,15.60
2022-11-28T22:41:29.309Z,14.83
2022-11-28T22:44:00.456Z,16.07
2022-11-28T22:46:28.261Z,16.10
2022-11-28T22:48:55.292Z,15.00
2022-11-28T22:51:25.040Z,16.10
2022-11-28T22:53:54.487Z,15.50
2022-11-28T22:56:21.426Z,20.80
2022-11-28T22:58:48.652Z,16.43
2022-11-28T23:01:24.893Z,16.33
2022-11-28T23:03:53.042Z,15.53
2022-11-28T23:06:25.739Z,16.00
2022-11-28T23:08:57.098Z,18.23
2022-11-28T23:11:28.134Z,16.83
2022-11-28T23:13:55.252Z,16.57
2022-11-28T23:16:28.839Z,17.23
2022-11-28T23:18:58.487Z,16.50
2022-11-28T23:21:28.309Z,17.97
2022-11-28T23:23:55.252Z,18.27
2022-11-28T23:26:24.327Z,17.33
2022-11-28T23:28:51.714Z,17.00
2022-11-28T23:31:24.471Z,17.67
2022-11-28T23:33:52.332Z,16.30
2022-11-28T23:36:29.706Z,16.93
2022-11-28T23:39:03.572Z,16.00
2022-11-28T23:41:30.453Z,18.13
2022-11-28T23:43:57.840Z,17.83
2022-11-28T23:46:25.682Z,18.67
2022-11-28T23:48:52.841Z,17.83
2022-11-28T23:51:22.882Z,17.73
2022-11-28T23:53:51.128Z,16.83
2022-11-28T23:56:21.141Z,17.70
2022-11-28T23:58:48.388Z,18.60
